Time;durP1;ratioP1;P1;durP2;ratioP2;P2;SDS_P1;SDS_P2;PMS_P1;PMS_P2;Temp;Humidity;BMP_temperature;BMP_pressure;BME280_temperature;BME280_humidity;BME280_pressure;Samples;Min_cycle;Max_cycle;Signal;HPM_P1;HPM_P2
2022/07/21 00:02:21;;;;;;;;;;;17.10;99.90;;;;;;5068825;28;20603;-58
2022/07/21 00:04:48;;;;;;;;;;;17.10;99.90;;;;;;5098862;28;20387;-59
2022/07/21 00:07:16;;;;;;;;;;;17.10;99.90;;;;;;5067412;28;20398;-59
2022/07/21 00:09:43;;;;;;;;;;;17.10;99.90;;;;;;5084627;28;19936;-55
2022/07/21 00:12:11;;;;;;;;;;;17.10;99.90;;;;;;5071553;28;19924;-54
2022/07/21 00:14:38;;;;;;;;;;;17.10;99.90;;;;;;5070227;28;20327;-54
2022/07/21 00:17:06;;;;;;;;;;;17.10;99.90;;;;;;5078544;28;19928;-57
2022/07/21 00:19:33;;;;;;;;;;;17.10;99.90;;;;;;5088772;28;20276;-57
2022/07/21 00:22:01;;;;;;;;;;;17.10;99.90;;;;;;5073393;28;19929;-57
2022/07/21 00:24:28;;;;;;;;;;;17.10;99.90;;;;;;5099626;28;20315;-56
2022/07/21 00:26:56;;;;;;;;;;;17.10;99.90;;;;;;5092533;28;19928;-56
2022/07/21 00:29:23;;;;;;;;;;;17.10;99.90;;;;;;5086198;28;20410;-57
2022/07/21 00:31:51;;;;;;;;;;;17.10;99.90;;;;;;5088941;28;19928;-57
2022/07/21 00:34:18;;;;;;;;;;;17.10;99.90;;;;;;5079877;28;19936;-57
2022/07/21 00:36:46;;;;;;;;;;;17.10;99.90;;;;;;5068566;28;19924;-57
2022/07/21 00:39:14;;;;;;;;;;;17.10;99.90;;;;;;5087224;28;19939;-56
2022/07/21 00:41:41;;;;;;;;;;;17.10;99.90;;;;;;5079450;28;20284;-57
2022/07/21 00:44:21;;;;;;;;;;;17.00;99.90;;;;;;5087123;28;19923;-57
2022/07/21 00:46:49;;;;;;;;;;;17.00;99.90;;;;;;5087661;28;19951;-57
2022/07/21 00:49:17;;;;;;;;;;;17.00;99.90;;;;;;5082090;28;19932;-57
2022/07/21 00:51:46;;;;;;;;;;;17.00;99.90;;;;;;5070285;28;20316;-56
2022/07/21 00:54:15;;;;;;;;;;;17.00;99.90;;;;;;5075843;28;19924;-57
2022/07/21 00:56:43;;;;;;;;;;;17.00;99.90;;;;;;5093689;28;19928;-56
2022/07/21 00:59:14;;;;;;;;;;;17.00;99.90;;;;;;5085761;28;19931;-55
2022/07/21 01:01:42;;;;;;;;;;;16.90;99.90;;;;;;5069839;28;20567;-56
2022/07/21 01:04:10;;;;;;;;;;;16.90;99.90;;;;;;5081160;28;19931;-56
2022/07/21 01:06:37;;;;;;;;;;;16.90;99.90;;;;;;5066228;28;19924;-56
2022/07/21 01:09:05;;;;;;;;;;;16.90;99.90;;;;;;5087178;28;19941;-57
2022/07/21 01:11:38;;;;;;;;;;;16.90;99.90;;;;;;5080491;28;19924;-57
2022/07/21 01:14:05;;;;;;;;;;;16.90;99.90;;;;;;5078404;28;19924;-56
2022/07/21 01:16:33;;;;;;;;;;;16.90;99.90;;;;;;5087410;28;19931;-57
2022/07/21 01:19:00;;;;;;;;;;;16.80;99.90;;;;;;5084960;28;19924;-56
2022/07/21 01:21:32;;;;;;;;;;;16.80;99.90;;;;;;5081629;28;19925;-56
2022/07/21 01:24:00;;;;;;;;;;;16.80;99.90;;;;;;5079376;28;19924;-57
2022/07/21 01:26:28;;;;;;;;;;;16.80;99.90;;;;;;5079830;28;19931;-56
2022/07/21 01:28:57;;;;;;;;;;;16.80;99.90;;;;;;5084884;28;19931;-56
2022/07/21 01:31:24;;;;;;;;;;;16.80;99.90;;;;;;5080841;28;19924;-57
2022/07/21 01:33:52;;;;;;;;;;;16.90;99.90;;;;;;5074637;28;20447;-56
2022/07/21 01:36:19;;;;;;;;;;;16.90;99.90;;;;;;5073046;28;19932;-57
2022/07/21 01:41:35;;;;;;;;;;;16.80;99.90;;;;;;5079248;28;19928;-56
2022/07/21 01:44:06;;;;;;;;;;;16.80;99.90;;;;;;5090165;28;19950;-56
2022/07/21 01:46:36;;;;;;;;;;;16.80;99.90;;;;;;5088966;28;19931;-57
2022/07/21 01:49:04;;;;;;;;;;;16.80;99.90;;;;;;5092039;28;19925;-57
2022/07/21 01:51:32;;;;;;;;;;;16.80;99.90;;;;;;5086394;28;19929;-56
2022/07/21 01:54:00;;;;;;;;;;;16.80;99.90;;;;;;5082815;28;19928;-57
2022/07/21 01:56:28;;;;;;;;;;;16.80;99.90;;;;;;5094413;28;19933;-55
2022/07/21 01:58:57;;;;;;;;;;;16.70;99.90;;;;;;5107852;28;19924;-54
2022/07/21 02:01:31;;;;;;;;;;;16.70;99.90;;;;;;5094114;28;19924;-54
2022/07/21 02:04:01;;;;;;;;;;;16.70;99.90;;;;;;5093399;28;20387;-54
2022/07/21 02:06:29;;;;;;;;;;;16.70;99.90;;;;;;5094677;28;19931;-55
2022/07/21 02:08:57;;;;;;;;;;;16.60;99.90;;;;;;5092300;28;19924;-54
2022/07/21 02:11:24;;;;;;;;;;;16.60;99.90;;;;;;5092128;28;19924;-57
2022/07/21 02:13:52;;;;;;;;;;;16.60;99.90;;;;;;5085384;28;19928;-56
2022/07/21 02:16:19;;;;;;;;;;;16.60;99.90;;;;;;5092865;28;19924;-56
2022/07/21 02:18:47;;;;;;;;;;;16.60;99.90;;;;;;5091390;28;19939;-56
2022/07/21 02:21:15;;;;;;;;;;;16.60;99.90;;;;;;5092286;28;20311;-56
2022/07/21 02:23:42;;;;;;;;;;;16.60;99.90;;;;;;5092605;28;19932;-56
2022/07/21 02:26:10;;;;;;;;;;;16.50;99.90;;;;;;5094899;28;19947;-56
2022/07/21 02:28:38;;;;;;;;;;;16.50;99.90;;;;;;5111378;28;20375;-55
2022/07/21 02:31:06;;;;;;;;;;;16.50;99.90;;;;;;5090667;28;19931;-55
2022/07/21 02:33:33;;;;;;;;;;;16.50;99.90;;;;;;5092100;28;19931;-57
2022/07/21 02:36:01;;;;;;;;;;;16.50;99.90;;;;;;5092117;28;19931;-60
2022/07/21 02:38:28;;;;;;;;;;;16.50;99.90;;;;;;5091237;28;19932;-56
2022/07/21 02:40:56;;;;;;;;;;;16.50;99.90;;;;;;5071813;28;19931;-57
2022/07/21 02:43:24;;;;;;;;;;;16.50;99.90;;;;;;5076898;28;19925;-57
2022/07/21 02:45:51;;;;;;;;;;;16.50;99.90;;;;;;5073275;28;20339;-58
2022/07/21 02:48:19;;;;;;;;;;;16.50;99.90;;;;;;5072485;28;20427;-57
2022/07/21 02:50:46;;;;;;;;;;;16.40;99.90;;;;;;5088560;28;19924;-58
2022/07/21 02:53:19;;;;;;;;;;;16.50;99.90;;;;;;5077677;28;19939;-56
2022/07/21 02:55:47;;;;;;;;;;;16.40;99.90;;;;;;5086974;28;20392;-58
2022/07/21 02:58:17;;;;;;;;;;;16.40;99.90;;;;;;5112814;28;19924;-58
2022/07/21 03:00:47;;;;;;;;;;;16.40;99.90;;;;;;5096038;28;19956;-57
2022/07/21 03:03:15;;;;;;;;;;;16.30;99.90;;;;;;5083223;28;19924;-56
2022/07/21 03:05:43;;;;;;;;;;;16.30;99.90;;;;;;5076113;28;20360;-55
2022/07/21 03:08:11;;;;;;;;;;;16.30;99.90;;;;;;5088105;28;19931;-57
2022/07/21 03:10:38;;;;;;;;;;;16.30;99.90;;;;;;5092065;28;19928;-56
2022/07/21 03:13:07;;;;;;;;;;;16.30;99.90;;;;;;5089404;28;20411;-56
2022/07/21 03:15:35;;;;;;;;;;;16.30;99.90;;;;;;5091163;28;19931;-56
2022/07/21 03:18:02;;;;;;;;;;;16.30;99.90;;;;;;5092448;28;19924;-57
2022/07/21 03:20:31;;;;;;;;;;;16.30;99.90;;;;;;5093155;28;19935;-56
2022/07/21 03:22:59;;;;;;;;;;;16.30;99.90;;;;;;5089276;28;20493;-57
2022/07/21 03:25:26;;;;;;;;;;;16.40;99.90;;;;;;5092744;28;19924;-57
2022/07/21 03:27:54;;;;;;;;;;;16.40;99.90;;;;;;5100803;28;19924;-57
2022/07/21 03:30:22;;;;;;;;;;;16.40;99.90;;;;;;5088142;28;20413;-54
2022/07/21 03:32:50;;;;;;;;;;;16.40;99.90;;;;;;5077501;28;20394;-55
2022/07/21 03:35:18;;;;;;;;;;;16.40;99.90;;;;;;5092909;28;19931;-55
2022/07/21 03:37:47;;;;;;;;;;;16.40;99.90;;;;;;5092653;28;19935;-56
2022/07/21 03:40:15;;;;;;;;;;;16.40;99.90;;;;;;5088945;28;20371;-57
2022/07/21 03:42:43;;;;;;;;;;;16.40;99.90;;;;;;5086985;28;19947;-55
2022/07/21 03:45:10;;;;;;;;;;;16.40;99.90;;;;;;5090616;28;20287;-56
2022/07/21 03:47:38;;;;;;;;;;;16.40;99.90;;;;;;5092425;28;19931;-56
2022/07/21 03:50:05;;;;;;;;;;;16.40;99.90;;;;;;5090108;28;19924;-56
2022/07/21 03:52:33;;;;;;;;;;;16.40;99.90;;;;;;5084813;28;20300;-55
2022/07/21 03:55:12;;;;;;;;;;;16.30;99.90;;;;;;5089615;28;20052;-57
2022/07/21 03:57:44;;;;;;;;;;;16.30;99.90;;;;;;5105174;28;19938;-56
2022/07/21 04:00:21;;;;;;;;;;;16.30;99.90;;;;;;5097195;28;20288;-56
2022/07/21 04:02:49;;;;;;;;;;;16.30;99.90;;;;;;5091506;28;19931;-57
2022/07/21 04:05:17;;;;;;;;;;;16.30;99.90;;;;;;5079905;28;20408;-58
2022/07/21 04:07:46;;;;;;;;;;;16.30;99.90;;;;;;5071123;28;19924;-54
2022/07/21 04:10:14;;;;;;;;;;;16.30;99.90;;;;;;5074920;28;19931;-55
2022/07/21 04:12:42;;;;;;;;;;;16.30;99.90;;;;;;5091918;28;19932;-57
2022/07/21 04:15:10;;;;;;;;;;;16.30;99.90;;;;;;5091345;28;19924;-57
2022/07/21 04:17:38;;;;;;;;;;;16.30;99.90;;;;;;5092224;28;19924;-56
2022/07/21 04:20:06;;;;;;;;;;;16.30;99.90;;;;;;5085152;28;19925;-57
2022/07/21 04:22:34;;;;;;;;;;;16.30;99.90;;;;;;5090656;28;19948;-54
2022/07/21 04:25:02;;;;;;;;;;;16.20;99.90;;;;;;5076085;28;19924;-54
2022/07/21 04:27:30;;;;;;;;;;;16.20;99.90;;;;;;5100464;28;19998;-54
2022/07/21 04:29:57;;;;;;;;;;;16.20;99.90;;;;;;5087947;28;19932;-55
2022/07/21 04:32:25;;;;;;;;;;;16.20;99.90;;;;;;5091209;28;19931;-54
2022/07/21 04:34:52;;;;;;;;;;;16.20;99.90;;;;;;5075189;28;20323;-54
2022/07/21 04:37:20;;;;;;;;;;;16.20;99.90;;;;;;5088397;28;19932;-54
2022/07/21 04:39:48;;;;;;;;;;;16.20;99.90;;;;;;5091746;28;19924;-56
2022/07/21 04:42:19;;;;;;;;;;;16.10;99.90;;;;;;5089832;28;20292;-56
2022/07/21 04:44:47;;;;;;;;;;;16.10;99.90;;;;;;5091976;28;20284;-57
2022/07/21 04:47:15;;;;;;;;;;;16.10;99.90;;;;;;5086749;28;20451;-56
2022/07/21 04:49:43;;;;;;;;;;;16.10;99.90;;;;;;5075873;28;19936;-56
2022/07/21 04:52:10;;;;;;;;;;;16.10;99.90;;;;;;5068477;28;19951;-57
2022/07/21 04:54:38;;;;;;;;;;;16.10;99.90;;;;;;5070539;28;19932;-57
2022/07/21 04:57:06;;;;;;;;;;;16.10;99.90;;;;;;5095679;28;19931;-57
2022/07/21 04:59:34;;;;;;;;;;;16.00;99.90;;;;;;5086968;28;19931;-57
2022/07/21 05:02:03;;;;;;;;;;;16.00;99.90;;;;;;5082084;28;19932;-56
2022/07/21 05:04:31;;;;;;;;;;;16.00;99.90;;;;;;5082455;28;20272;-56
2022/07/21 05:06:58;;;;;;;;;;;16.00;99.90;;;;;;5080680;28;19928;-56
2022/07/21 05:09:26;;;;;;;;;;;16.00;99.90;;;;;;5084998;28;20564;-57
2022/07/21 05:11:53;;;;;;;;;;;16.00;99.90;;;;;;5066240;28;19933;-56
2022/07/21 05:14:21;;;;;;;;;;;16.00;99.90;;;;;;5084073;28;19924;-56
2022/07/21 05:16:48;;;;;;;;;;;16.00;99.90;;;;;;5087637;28;19935;-56
2022/07/21 05:19:16;;;;;;;;;;;16.10;99.90;;;;;;5093508;28;20123;-56
2022/07/21 05:21:45;;;;;;;;;;;16.10;99.90;;;;;;5088970;28;19932;-57
2022/07/21 05:24:12;;;;;;;;;;;16.10;99.90;;;;;;5069203;28;19925;-56
2022/07/21 05:26:40;;;;;;;;;;;16.10;99.90;;;;;;5089534;28;19928;-57
2022/07/21 05:29:07;;;;;;;;;;;16.10;99.90;;;;;;5091233;28;19924;-56
2022/07/21 05:31:35;;;;;;;;;;;16.00;99.90;;;;;;5091072;28;20504;-57
2022/07/21 05:34:03;;;;;;;;;;;16.10;99.90;;;;;;5079798;28;20287;-56
2022/07/21 05:36:30;;;;;;;;;;;16.00;99.90;;;;;;5074259;28;19924;-57
2022/07/21 05:38:58;;;;;;;;;;;16.10;99.90;;;;;;5077156;28;19969;-57
2022/07/21 05:41:25;;;;;;;;;;;16.10;99.90;;;;;;5083036;28;19924;-56
2022/07/21 05:43:53;;;;;;;;;;;16.10;99.90;;;;;;5090648;28;19924;-57
2022/07/21 05:46:20;;;;;;;;;;;16.10;99.90;;;;;;5084046;28;19924;-64
2022/07/21 05:48:48;;;;;;;;;;;16.10;99.90;;;;;;5098707;28;19928;-56
2022/07/21 05:51:16;;;;;;;;;;;16.10;99.90;;;;;;5089218;28;19935;-56
2022/07/21 05:53:45;;;;;;;;;;;16.10;99.90;;;;;;5076781;28;19940;-55
2022/07/21 05:56:12;;;;;;;;;;;16.10;99.90;;;;;;5081420;28;19935;-56
2022/07/21 05:58:40;;;;;;;;;;;16.10;99.90;;;;;;5084619;28;19924;-56
2022/07/21 06:01:07;;;;;;;;;;;16.10;99.90;;;;;;5085321;28;19935;-57
2022/07/21 06:03:36;;;;;;;;;;;16.10;99.90;;;;;;5084482;28;19928;-57
2022/07/21 06:06:04;;;;;;;;;;;16.20;99.90;;;;;;5088975;28;19932;-56
2022/07/21 06:08:31;;;;;;;;;;;16.20;99.90;;;;;;5078328;28;19935;-56
2022/07/21 06:11:02;;;;;;;;;;;16.20;99.90;;;;;;5083875;28;20380;-56
2022/07/21 06:13:29;;;;;;;;;;;16.20;99.90;;;;;;5082513;28;19928;-56
2022/07/21 06:15:57;;;;;;;;;;;16.20;99.90;;;;;;5076793;28;19948;-56
2022/07/21 06:18:24;;;;;;;;;;;16.20;99.90;;;;;;5081864;28;19935;-56
2022/07/21 06:20:52;;;;;;;;;;;16.20;99.90;;;;;;5087967;28;20295;-56
2022/07/21 06:23:19;;;;;;;;;;;16.20;99.90;;;;;;5078405;28;19925;-55
2022/07/21 06:25:47;;;;;;;;;;;16.10;99.90;;;;;;5071163;28;19939;-61
2022/07/21 06:28:14;;;;;;;;;;;16.10;99.90;;;;;;5077164;28;20295;-57
2022/07/21 06:30:42;;;;;;;;;;;16.10;99.90;;;;;;5077394;28;19924;-55
2022/07/21 06:33:09;;;;;;;;;;;16.10;99.90;;;;;;5080314;28;19932;-57
2022/07/21 06:35:37;;;;;;;;;;;16.10;99.90;;;;;;5073609;28;19928;-54
2022/07/21 06:38:05;;;;;;;;;;;16.10;99.90;;;;;;5088098;28;19924;-56
2022/07/21 06:40:40;;;;;;;;;;;16.20;99.90;;;;;;5071103;28;19931;-55
2022/07/21 06:43:10;;;;;;;;;;;16.20;99.90;;;;;;5082670;28;19931;-57
2022/07/21 06:45:56;;;;;;;;;;;16.20;99.90;;;;;;5080271;28;19935;-55
2022/07/21 06:48:24;;;;;;;;;;;16.20;99.90;;;;;;5078389;28;20410;-56
2022/07/21 06:50:53;;;;;;;;;;;16.30;99.90;;;;;;5090365;28;20085;-57
2022/07/21 06:53:21;;;;;;;;;;;16.20;99.90;;;;;;5085842;28;19924;-55
2022/07/21 06:55:52;;;;;;;;;;;16.30;99.90;;;;;;5085386;28;19924;-55
2022/07/21 06:58:30;;;;;;;;;;;16.30;99.90;;;;;;5088555;28;20450;-54
2022/07/21 07:01:04;;;;;;;;;;;16.30;99.90;;;;;;5075142;28;19924;-55
2022/07/21 07:03:33;;;;;;;;;;;16.30;99.90;;;;;;5093250;28;19931;-54
2022/07/21 07:06:02;;;;;;;;;;;16.30;99.90;;;;;;5094326;28;20466;-57
2022/07/21 07:08:30;;;;;;;;;;;16.30;99.90;;;;;;5089865;28;20535;-56
2022/07/21 07:10:57;;;;;;;;;;;16.30;99.90;;;;;;5065325;28;20379;-57
2022/07/21 07:13:25;;;;;;;;;;;16.30;99.90;;;;;;5082797;28;20424;-57
2022/07/21 07:16:13;;;;;;;;;;;16.30;99.90;;;;;;5088900;28;20410;-56
2022/07/21 07:18:40;;;;;;;;;;;16.40;99.90;;;;;;5079861;28;19925;-56
2022/07/21 07:21:08;;;;;;;;;;;16.30;99.90;;;;;;5080556;28;19924;-57
2022/07/21 07:23:38;;;;;;;;;;;16.40;99.90;;;;;;5087804;28;19931;-57
2022/07/21 07:26:06;;;;;;;;;;;16.40;99.90;;;;;;5072455;28;20272;-57
2022/07/21 07:28:34;;;;;;;;;;;16.40;99.90;;;;;;5088496;28;20278;-56
2022/07/21 07:31:02;;;;;;;;;;;16.40;99.90;;;;;;5086545;28;19955;-56
2022/07/21 07:33:29;;;;;;;;;;;16.40;99.90;;;;;;5072391;28;19940;-57
2022/07/21 07:35:57;;;;;;;;;;;16.40;99.90;;;;;;5089653;28;20493;-56
2022/07/21 07:38:25;;;;;;;;;;;16.40;99.90;;;;;;5085935;28;19987;-55
2022/07/21 07:40:52;;;;;;;;;;;16.40;99.90;;;;;;5081099;28;20489;-55
2022/07/21 07:43:20;;;;;;;;;;;16.40;99.90;;;;;;5086780;28;19924;-57
2022/07/21 07:45:47;;;;;;;;;;;16.40;99.90;;;;;;5085906;28;19947;-58
2022/07/21 07:48:15;;;;;;;;;;;16.40;99.90;;;;;;5070230;28;20303;-56
2022/07/21 07:50:42;;;;;;;;;;;16.50;99.90;;;;;;5071721;28;20318;-57
2022/07/21 07:53:10;;;;;;;;;;;16.50;99.90;;;;;;5089566;28;19925;-56
2022/07/21 07:55:37;;;;;;;;;;;16.60;99.90;;;;;;5070005;28;20295;-58
2022/07/21 07:58:05;;;;;;;;;;;16.70;99.90;;;;;;5085738;28;19924;-58
2022/07/21 08:00:32;;;;;;;;;;;16.70;99.90;;;;;;5109289;28;19946;-56
2022/07/21 08:03:21;;;;;;;;;;;16.80;99.90;;;;;;5084421;28;19924;-57
2022/07/21 08:05:49;;;;;;;;;;;16.80;99.90;;;;;;5067262;28;19924;-57
2022/07/21 08:08:16;;;;;;;;;;;16.70;99.90;;;;;;5085090;28;19924;-56
2022/07/21 08:10:45;;;;;;;;;;;16.80;99.90;;;;;;5074112;28;19932;-57
2022/07/21 08:13:14;;;;;;;;;;;16.80;99.90;;;;;;5082333;28;19924;-58
2022/07/21 08:15:43;;;;;;;;;;;16.90;99.90;;;;;;5070274;28;19951;-57
2022/07/21 08:18:10;;;;;;;;;;;16.90;99.90;;;;;;5073180;28;19931;-56
2022/07/21 08:20:38;;;;;;;;;;;17.00;99.90;;;;;;5088900;28;19925;-57
2022/07/21 08:23:06;;;;;;;;;;;17.10;99.90;;;;;;5081635;28;20033;-58
2022/07/21 08:25:34;;;;;;;;;;;17.20;99.90;;;;;;5071288;28;19930;-57
2022/07/21 08:28:01;;;;;;;;;;;17.30;99.90;;;;;;5074765;28;19924;-57
2022/07/21 08:30:29;;;;;;;;;;;17.40;99.90;;;;;;5069005;28;19935;-57
2022/07/21 08:32:58;;;;;;;;;;;17.50;99.90;;;;;;5095917;28;20302;-57
2022/07/21 08:35:27;;;;;;;;;;;17.70;99.90;;;;;;5077758;28;19947;-56
2022/07/21 08:38:01;;;;;;;;;;;17.80;99.90;;;;;;5083324;28;20376;-56
2022/07/21 08:40:30;;;;;;;;;;;17.90;99.90;;;;;;5075132;28;20304;-57
2022/07/21 08:42:58;;;;;;;;;;;18.00;99.70;;;;;;5093352;28;19928;-58
2022/07/21 08:45:27;;;;;;;;;;;18.00;99.00;;;;;;5075810;28;19928;-58
2022/07/21 08:47:55;;;;;;;;;;;18.10;99.00;;;;;;5086205;28;19924;-57
2022/07/21 08:50:24;;;;;;;;;;;18.20;98.60;;;;;;5077097;28;19924;-58
2022/07/21 08:52:52;;;;;;;;;;;18.20;98.20;;;;;;5069936;28;19925;-56
2022/07/21 08:55:30;;;;;;;;;;;18.20;98.20;;;;;;5077164;28;19924;-57
2022/07/21 08:57:58;;;;;;;;;;;18.20;97.70;;;;;;5083725;28;19924;-57
2022/07/21 09:00:27;;;;;;;;;;;18.30;97.60;;;;;;5085063;28;20303;-57
2022/07/21 09:03:13;;;;;;;;;;;18.30;97.70;;;;;;5098884;28;19927;-55
2022/07/21 09:05:42;;;;;;;;;;;18.30;97.60;;;;;;5079738;28;19943;-55
2022/07/21 09:08:10;;;;;;;;;;;18.40;97.50;;;;;;5092518;28;19924;-57
2022/07/21 09:10:37;;;;;;;;;;;18.50;97.10;;;;;;5081926;28;19955;-57
2022/07/21 09:13:06;;;;;;;;;;;18.50;97.00;;;;;;5080244;28;19931;-57
2022/07/21 09:15:34;;;;;;;;;;;18.50;96.60;;;;;;5074946;28;19932;-56
2022/07/21 09:18:05;;;;;;;;;;;18.40;96.70;;;;;;5087480;28;19961;-57
2022/07/21 09:20:39;;;;;;;;;;;18.40;96.80;;;;;;5087640;28;19928;-55
2022/07/21 09:23:08;;;;;;;;;;;18.40;97.00;;;;;;5081132;28;19928;-55
2022/07/21 09:25:43;;;;;;;;;;;18.40;97.20;;;;;;5081839;28;19933;-56
2022/07/21 09:28:21;;;;;;;;;;;18.40;96.90;;;;;;5088669;28;19928;-55
2022/07/21 09:31:08;;;;;;;;;;;18.40;96.90;;;;;;5071504;28;20436;-57
2022/07/21 09:33:38;;;;;;;;;;;18.40;96.70;;;;;;5083676;28;19924;-55
2022/07/21 09:36:05;;;;;;;;;;;18.40;96.80;;;;;;5074310;28;19932;-58
2022/07/21 09:38:34;;;;;;;;;;;18.40;96.90;;;;;;5081403;28;19925;-58
2022/07/21 09:41:09;;;;;;;;;;;19.60;97.30;;;;;;5079711;28;19931;-57
2022/07/21 09:43:43;;;;;;;;;;;18.40;97.00;;;;;;5079475;28;19940;-58
2022/07/21 09:46:12;;;;;;;;;;;18.40;97.00;;;;;;5081488;28;19928;-58
2022/07/21 09:48:40;;;;;;;;;;;18.40;96.90;;;;;;5076986;28;19924;-57
2022/07/21 09:51:19;;;;;;;;;;;18.30;97.00;;;;;;5074853;28;19925;-57
2022/07/21 09:53:48;;;;;;;;;;;18.30;97.20;;;;;;5075455;28;19931;-57
2022/07/21 09:56:19;;;;;;;;;;;18.30;97.20;;;;;;5076634;28;20268;-56
2022/07/21 09:58:48;;;;;;;;;;;18.30;97.10;;;;;;5071713;28;19924;-56
2022/07/21 10:01:15;;;;;;;;;;;18.30;97.20;;;;;;5073736;28;19939;-57
2022/07/21 10:03:44;;;;;;;;;;;18.30;97.20;;;;;;5076983;28;19924;-56
2022/07/21 10:06:13;;;;;;;;;;;18.30;97.30;;;;;;5072934;28;19924;-58
2022/07/21 10:08:42;;;;;;;;;;;18.20;97.20;;;;;;5096014;28;19925;-56
2022/07/21 10:11:09;;;;;;;;;;;18.30;97.40;;;;;;5076493;28;19931;-55
2022/07/21 10:13:45;;;;;;;;;;;18.20;97.30;;;;;;5078555;28;20291;-57
2022/07/21 10:16:12;;;;;;;;;;;18.30;97.30;;;;;;5073422;28;19924;-56
2022/07/21 10:19:00;;;;;;;;;;;18.30;97.10;;;;;;5074967;28;19925;-57
2022/07/21 10:21:27;;;;;;;;;;;18.20;97.00;;;;;;5076087;28;19924;-58
2022/07/21 10:23:55;;;;;;;;;;;18.20;97.20;;;;;;5073915;28;19935;-57
2022/07/21 10:26:23;;;;;;;;;;;18.20;97.40;;;;;;5081213;28;20802;-57
2022/07/21 10:28:51;;;;;;;;;;;18.20;97.60;;;;;;5082162;28;19928;-58
2022/07/21 10:31:20;;;;;;;;;;;18.20;97.80;;;;;;5094215;28;19924;-58
2022/07/21 10:33:48;;;;;;;;;;;18.20;98.10;;;;;;5068162;28;20311;-58
2022/07/21 10:36:28;;;;;;;;;;;18.20;98.30;;;;;;5094645;28;20427;-57
2022/07/21 10:39:17;;;;;;;;;;;18.20;98.40;;;;;;5092250;28;19924;-58
2022/07/21 10:41:49;;;;;;;;;;;18.20;98.40;;;;;;5076848;28;19924;-58
2022/07/21 10:44:32;;;;;;;;;;;18.10;98.70;;;;;;5085852;28;19925;-56
2022/07/21 10:47:12;;;;;;;;;;;18.10;98.90;;;;;;5080355;28;19924;-58
2022/07/21 10:49:42;;;;;;;;;;;18.00;99.10;;;;;;5090320;28;19924;-58
2022/07/21 10:52:29;;;;;;;;;;;17.90;99.70;;;;;;5082046;28;19943;-58
2022/07/21 10:55:26;;;;;;;;;;;17.90;99.90;;;;;;5080170;28;19924;-58
2022/07/21 10:58:08;;;;;;;;;;;18.00;99.90;;;;;;5072465;28;19931;-58
2022/07/21 11:00:36;;;;;;;;;;;18.00;99.90;;;;;;5069401;28;19932;-57
2022/07/21 11:03:12;;;;;;;;;;;18.00;99.90;;;;;;5083918;28;19931;-58
2022/07/21 11:06:00;;;;;;;;;;;18.10;99.90;;;;;;5077444;28;19932;-58
2022/07/21 11:08:31;;;;;;;;;;;18.10;99.90;;;;;;5099374;28;19957;-57
2022/07/21 11:11:11;;;;;;;;;;;18.10;99.90;;;;;;5098470;28;20375;-58
2022/07/21 11:13:56;;;;;;;;;;;18.10;99.90;;;;;;5082150;28;19924;-58
2022/07/21 11:16:46;;;;;;;;;;;18.10;99.90;;;;;;5082412;28;19931;-58
2022/07/21 11:19:33;;;;;;;;;;;18.20;99.90;;;;;;5071721;28;20299;-58
2022/07/21 11:22:03;;;;;;;;;;;18.20;99.90;;;;;;5082468;28;19924;-58
2022/07/21 11:24:30;;;;;;;;;;;18.30;99.90;;;;;;5080654;28;20486;-58
2022/07/21 11:27:00;;;;;;;;;;;18.30;99.90;;;;;;5077774;28;20449;-57
2022/07/21 11:29:29;;;;;;;;;;;18.40;99.90;;;;;;5092036;28;19924;-57
2022/07/21 11:31:58;;;;;;;;;;;18.60;99.90;;;;;;5074644;28;20403;-59
2022/07/21 11:34:36;;;;;;;;;;;18.70;99.90;;;;;;5086185;28;20303;-59
2022/07/21 11:37:03;;;;;;;;;;;18.90;99.90;;;;;;5085447;28;19951;-58
2022/07/21 11:39:51;;;;;;;;;;;18.90;99.90;;;;;;5086278;28;19928;-57
2022/07/21 11:42:20;;;;;;;;;;;18.90;99.90;;;;;;5068535;28;20380;-58
2022/07/21 11:44:55;;;;;;;;;;;18.90;99.90;;;;;;5079397;28;19928;-58
2022/07/21 11:47:25;;;;;;;;;;;18.90;99.90;;;;;;5086783;28;19946;-57
2022/07/21 11:49:56;;;;;;;;;;;19.00;99.90;;;;;;5080803;28;19925;-56
2022/07/21 11:52:34;;;;;;;;;;;19.00;99.90;;;;;;5080001;28;20352;-56
2022/07/21 11:55:03;;;;;;;;;;;18.90;99.90;;;;;;5091514;28;19928;-55
2022/07/21 11:57:31;;;;;;;;;;;18.80;99.90;;;;;;5091942;28;19939;-56
2022/07/21 11:59:58;;;;;;;;;;;18.90;99.90;;;;;;5077934;28;19932;-55
2022/07/21 12:02:27;;;;;;;;;;;19.00;99.90;;;;;;5073764;28;20291;-56
2022/07/21 12:04:57;;;;;;;;;;;19.20;99.90;;;;;;5083901;28;19951;-56
2022/07/21 12:07:25;;;;;;;;;;;19.20;99.30;;;;;;5083975;28;19924;-57
2022/07/21 12:10:00;;;;;;;;;;;19.30;99.40;;;;;;5080331;28;20302;-58
2022/07/21 12:12:31;;;;;;;;;;;19.40;99.40;;;;;;5074194;28;19965;-58
2022/07/21 12:15:17;;;;;;;;;;;19.50;99.10;;;;;;5072443;28;20017;-57
2022/07/21 12:17:46;;;;;;;;;;;19.70;99.10;;;;;;5074167;28;20426;-58
2022/07/21 12:20:14;;;;;;;;;;;19.90;98.60;;;;;;5081816;28;20295;-57
2022/07/21 12:22:46;;;;;;;;;;;20.00;97.90;;;;;;5075680;28;19931;-58
2022/07/21 12:25:14;;;;;;;;;;;20.10;98.00;;;;;;5067026;28;19935;-57
2022/07/21 12:27:43;;;;;;;;;;;20.20;98.00;;;;;;5079254;28;19924;-57
2022/07/21 12:30:28;;;;;;;;;;;20.30;97.70;;;;;;5073171;28;19924;-57
2022/07/21 12:33:00;;;;;;;;;;;20.40;97.60;;;;;;5076581;28;19938;-57
2022/07/21 12:35:28;;;;;;;;;;;20.50;96.70;;;;;;5074446;28;19924;-58
2022/07/21 12:38:01;;;;;;;;;;;20.60;96.50;;;;;;5071991;28;20297;-57
2022/07/21 12:40:29;;;;;;;;;;;20.60;96.20;;;;;;5082228;28;19927;-58
2022/07/21 12:43:06;;;;;;;;;;;20.70;96.40;;;;;;5091165;28;19928;-58
2022/07/21 12:45:46;;;;;;;;;;;20.70;96.50;;;;;;5068537;28;20291;-58
2022/07/21 12:48:15;;;;;;;;;;;20.70;96.00;;;;;;5075016;28;19933;-58
2022/07/21 12:50:56;;;;;;;;;;;20.70;96.20;;;;;;5068332;28;20310;-57
2022/07/21 12:53:23;;;;;;;;;;;20.60;95.50;;;;;;5073505;28;20287;-61
2022/07/21 12:55:51;;;;;;;;;;;20.60;95.70;;;;;;5072368;28;19925;-58
2022/07/21 12:58:18;;;;;;;;;;;20.60;96.00;;;;;;5072906;28;19931;-57
2022/07/21 13:00:46;;;;;;;;;;;20.70;95.80;;;;;;5064112;28;19925;-57
2022/07/21 13:03:14;;;;;;;;;;;20.60;95.60;;;;;;5068811;28;19935;-57
2022/07/21 13:05:41;;;;;;;;;;;20.60;95.70;;;;;;5082937;28;19925;-57
2022/07/21 13:08:09;;;;;;;;;;;20.50;95.80;;;;;;5077978;28;19934;-58
2022/07/21 13:10:36;;;;;;;;;;;20.40;95.70;;;;;;5081953;28;20306;-58
2022/07/21 13:13:04;;;;;;;;;;;20.40;95.80;;;;;;5069502;28;20288;-58
2022/07/21 13:15:31;;;;;;;;;;;20.30;95.60;;;;;;5077361;28;19924;-56
2022/07/21 13:17:59;;;;;;;;;;;20.20;95.90;;;;;;5091241;28;19931;-57
2022/07/21 13:20:27;;;;;;;;;;;20.10;96.10;;;;;;5089453;28;20354;-57
2022/07/21 13:22:54;;;;;;;;;;;20.00;96.30;;;;;;5066523;28;19943;-57
2022/07/21 13:25:22;;;;;;;;;;;20.00;96.30;;;;;;5072226;28;20501;-58
2022/07/21 13:27:49;;;;;;;;;;;19.90;96.10;;;;;;5068894;28;19932;-58
2022/07/21 13:30:17;;;;;;;;;;;19.90;96.30;;;;;;5068382;28;19928;-57
2022/07/21 13:32:45;;;;;;;;;;;19.80;96.40;;;;;;5079261;28;19928;-58
2022/07/21 13:35:13;;;;;;;;;;;19.80;96.50;;;;;;5081507;28;20342;-58
2022/07/21 13:37:57;;;;;;;;;;;19.80;96.70;;;;;;5077068;28;19924;-58
2022/07/21 13:40:25;;;;;;;;;;;19.90;97.00;;;;;;5065783;28;19928;-58
2022/07/21 13:43:14;;;;;;;;;;;20.00;96.90;;;;;;5075154;28;19928;-58
2022/07/21 13:46:02;;;;;;;;;;;20.10;96.80;;;;;;5074253;28;20505;-57
2022/07/21 13:48:29;;;;;;;;;;;20.20;96.50;;;;;;5077257;28;20123;-58
2022/07/21 13:50:57;;;;;;;;;;;20.20;96.60;;;;;;5079847;28;19943;-57
2022/07/21 13:53:25;;;;;;;;;;;20.20;96.60;;;;;;5089367;28;19939;-56
2022/07/21 13:55:53;;;;;;;;;;;20.20;96.70;;;;;;5085609;28;19931;-57
2022/07/21 13:58:21;;;;;;;;;;;20.30;96.70;;;;;;5075377;28;19924;-55
2022/07/21 14:00:49;;;;;;;;;;;20.40;96.70;;;;;;5091818;28;19923;-57
2022/07/21 14:03:17;;;;;;;;;;;20.50;96.30;;;;;;5086097;28;19931;-55
2022/07/21 14:05:44;;;;;;;;;;;20.50;96.30;;;;;;5086859;28;19931;-56
2022/07/21 14:08:12;;;;;;;;;;;20.50;96.30;;;;;;5077070;28;19925;-58
2022/07/21 14:10:40;;;;;;;;;;;20.60;96.40;;;;;;5079453;28;19928;-57
2022/07/21 14:13:07;;;;;;;;;;;20.60;96.30;;;;;;5071276;28;19935;-58
2022/07/21 14:15:35;;;;;;;;;;;20.60;96.00;;;;;;5080108;28;20268;-58
2022/07/21 14:18:02;;;;;;;;;;;20.60;96.00;;;;;;5077387;28;20299;-58
2022/07/21 14:20:30;;;;;;;;;;;20.60;95.90;;;;;;5069419;28;19932;-57
2022/07/21 14:22:58;;;;;;;;;;;20.70;96.10;;;;;;5085189;28;19923;-57
2022/07/21 14:25:26;;;;;;;;;;;20.70;96.20;;;;;;5086185;28;19924;-56
2022/07/21 14:27:55;;;;;;;;;;;20.80;96.30;;;;;;5085492;28;19928;-56
2022/07/21 14:30:23;;;;;;;;;;;20.80;95.70;;;;;;5083727;28;20383;-56
2022/07/21 14:32:55;;;;;;;;;;;20.90;95.80;;;;;;5080657;28;19924;-57
2022/07/21 14:35:23;;;;;;;;;;;20.80;95.70;;;;;;5068390;28;19936;-56